sensor_id;sensor_type;location;lat;lon;timestamp;temperature;humidity
46926;DHT22;32667;48.248;-1.700;2023-04-25T00:00:26;10.00;68.70
46926;DHT22;32667;48.248;-1.700;2023-04-25T00:02:52;10.00;68.70
46926;DHT22;32667;48.248;-1.700;2023-04-25T00:05:18;9.90;68.80
46926;DHT22;32667;48.248;-1.700;2023-04-25T00:07:45;9.90;68.80
46926;DHT22;32667;48.248;-1.700;2023-04-25T00:10:11;9.90;68.80
46926;DHT22;32667;48.248;-1.700;2023-04-25T00:12:49;9.90;68.80
46926;DHT22;32667;48.248;-1.700;2023-04-25T00:15:15;9.80;68.80
46926;DHT22;32667;48.248;-1.700;2023-04-25T00:17:41;9.80;68.80
46926;DHT22;32667;48.248;-1.700;2023-04-25T00:20:08;9.80;68.80
46926;DHT22;32667;48.248;-1.700;2023-04-25T00:22:36;9.70;68.80
46926;DHT22;32667;48.248;-1.700;2023-04-25T00:25:05;9.70;69.00
46926;DHT22;32667;48.248;-1.700;2023-04-25T00:27:31;9.60;69.00
46926;DHT22;32667;48.248;-1.700;2023-04-25T00:29:57;9.60;69.10
46926;DHT22;32667;48.248;-1.700;2023-04-25T00:35:37;9.50;69.30
46926;DHT22;32667;48.248;-1.700;2023-04-25T00:38:03;9.40;69.20
46926;DHT22;32667;48.248;-1.700;2023-04-25T00:40:29;9.40;69.30
46926;DHT22;32667;48.248;-1.700;2023-04-25T00:42:55;9.40;69.30
46926;DHT22;32667;48.248;-1.700;2023-04-25T00:45:21;9.40;69.20
46926;DHT22;32667;48.248;-1.700;2023-04-25T00:47:46;9.40;69.10
46926;DHT22;32667;48.248;-1.700;2023-04-25T00:50:13;9.50;69.10
46926;DHT22;32667;48.248;-1.700;2023-04-25T00:52:44;9.40;69.00
46926;DHT22;32667;48.248;-1.700;2023-04-25T00:55:11;9.50;69.10
46926;DHT22;32667;48.248;-1.700;2023-04-25T00:57:38;9.40;69.00
46926;DHT22;32667;48.248;-1.700;2023-04-25T01:00:05;9.40;69.00
46926;DHT22;32667;48.248;-1.700;2023-04-25T01:02:33;9.40;68.90
46926;DHT22;32667;48.248;-1.700;2023-04-25T01:04:59;9.40;68.90
46926;DHT22;32667;48.248;-1.700;2023-04-25T01:07:25;9.40;68.90
46926;DHT22;32667;48.248;-1.700;2023-04-25T01:09:52;9.30;68.90
46926;DHT22;32667;48.248;-1.700;2023-04-25T01:12:17;9.30;69.00
46926;DHT22;32667;48.248;-1.700;2023-04-25T01:14:43;9.20;69.20
46926;DHT22;32667;48.248;-1.700;2023-04-25T01:17:10;9.10;69.30
46926;DHT22;32667;48.248;-1.700;2023-04-25T01:19:35;9.10;69.40
46926;DHT22;32667;48.248;-1.700;2023-04-25T01:22:02;9.00;69.50
46926;DHT22;32667;48.248;-1.700;2023-04-25T01:24:33;9.00;69.50
46926;DHT22;32667;48.248;-1.700;2023-04-25T01:27:00;8.90;69.50
46926;DHT22;32667;48.248;-1.700;2023-04-25T01:29:27;8.80;69.60
46926;DHT22;32667;48.248;-1.700;2023-04-25T01:31:53;8.80;69.70
46926;DHT22;32667;48.248;-1.700;2023-04-25T01:34:19;8.70;69.70
46926;DHT22;32667;48.248;-1.700;2023-04-25T01:36:49;8.70;69.70
46926;DHT22;32667;48.248;-1.700;2023-04-25T01:39:18;8.70;69.70
46926;DHT22;32667;48.248;-1.700;2023-04-25T01:41:45;8.70;69.70
46926;DHT22;32667;48.248;-1.700;2023-04-25T01:44:12;8.80;69.60
46926;DHT22;32667;48.248;-1.700;2023-04-25T01:46:40;8.80;69.50
46926;DHT22;32667;48.248;-1.700;2023-04-25T01:49:07;8.80;69.40
46926;DHT22;32667;48.248;-1.700;2023-04-25T01:51:35;8.80;69.30
46926;DHT22;32667;48.248;-1.700;2023-04-25T01:54:01;8.80;69.30
46926;DHT22;32667;48.248;-1.700;2023-04-25T01:56:31;8.80;69.30
46926;DHT22;32667;48.248;-1.700;2023-04-25T01:58:58;8.80;69.40
46926;DHT22;32667;48.248;-1.700;2023-04-25T02:01:23;8.80;69.40
46926;DHT22;32667;48.248;-1.700;2023-04-25T02:03:49;8.70;69.30
46926;DHT22;32667;48.248;-1.700;2023-04-25T02:06:15;8.70;69.40
46926;DHT22;32667;48.248;-1.700;2023-04-25T02:08:41;8.70;69.40
46926;DHT22;32667;48.248;-1.700;2023-04-25T02:11:07;8.70;69.50
46926;DHT22;32667;48.248;-1.700;2023-04-25T02:13:32;8.60;69.50
46926;DHT22;32667;48.248;-1.700;2023-04-25T02:15:58;8.60;69.70
46926;DHT22;32667;48.248;-1.700;2023-04-25T02:18:24;8.50;69.70
46926;DHT22;32667;48.248;-1.700;2023-04-25T02:20:51;8.40;69.70
46926;DHT22;32667;48.248;-1.700;2023-04-25T02:23:17;8.40;69.70
46926;DHT22;32667;48.248;-1.700;2023-04-25T02:25:44;8.40;69.70
46926;DHT22;32667;48.248;-1.700;2023-04-25T02:28:12;8.40;69.70
46926;DHT22;32667;48.248;-1.700;2023-04-25T02:30:41;8.30;69.60
46926;DHT22;32667;48.248;-1.700;2023-04-25T02:33:07;8.30;69.70
46926;DHT22;32667;48.248;-1.700;2023-04-25T02:35:33;8.30;69.70
46926;DHT22;32667;48.248;-1.700;2023-04-25T02:37:58;8.30;69.70
46926;DHT22;32667;48.248;-1.700;2023-04-25T02:40:24;8.30;69.70
46926;DHT22;32667;48.248;-1.700;2023-04-25T02:42:50;8.30;69.70
46926;DHT22;32667;48.248;-1.700;2023-04-25T02:45:16;8.30;69.70
46926;DHT22;32667;48.248;-1.700;2023-04-25T02:47:42;8.30;69.60
46926;DHT22;32667;48.248;-1.700;2023-04-25T02:50:08;8.30;69.60
46926;DHT22;32667;48.248;-1.700;2023-04-25T02:52:34;8.30;69.50
46926;DHT22;32667;48.248;-1.700;2023-04-25T02:54:59;8.30;69.40
46926;DHT22;32667;48.248;-1.700;2023-04-25T02:57:25;8.30;69.40
46926;DHT22;32667;48.248;-1.700;2023-04-25T02:59:51;8.30;69.40
46926;DHT22;32667;48.248;-1.700;2023-04-25T03:02:17;8.40;69.40
46926;DHT22;32667;48.248;-1.700;2023-04-25T03:04:42;8.40;69.30
46926;DHT22;32667;48.248;-1.700;2023-04-25T03:07:09;8.40;69.20
46926;DHT22;32667;48.248;-1.700;2023-04-25T03:09:35;8.50;69.20
46926;DHT22;32667;48.248;-1.700;2023-04-25T03:12:01;8.50;69.10
46926;DHT22;32667;48.248;-1.700;2023-04-25T03:14:27;8.50;69.00
46926;DHT22;32667;48.248;-1.700;2023-04-25T03:16:53;8.50;69.00
46926;DHT22;32667;48.248;-1.700;2023-04-25T03:19:18;8.50;69.00
46926;DHT22;32667;48.248;-1.700;2023-04-25T03:21:45;8.50;69.00
46926;DHT22;32667;48.248;-1.700;2023-04-25T03:24:11;8.40;68.90
46926;DHT22;32667;48.248;-1.700;2023-04-25T03:26:37;8.50;69.00
46926;DHT22;32667;48.248;-1.700;2023-04-25T03:29:03;8.50;69.00
46926;DHT22;32667;48.248;-1.700;2023-04-25T03:31:30;8.40;69.00
46926;DHT22;32667;48.248;-1.700;2023-04-25T03:33:56;8.40;69.00
46926;DHT22;32667;48.248;-1.700;2023-04-25T03:36:22;8.40;69.00
46926;DHT22;32667;48.248;-1.700;2023-04-25T03:38:48;8.40;69.00
46926;DHT22;32667;48.248;-1.700;2023-04-25T03:41:14;8.40;69.00
46926;DHT22;32667;48.248;-1.700;2023-04-25T03:43:39;8.40;69.00
46926;DHT22;32667;48.248;-1.700;2023-04-25T03:46:05;8.40;69.00
46926;DHT22;32667;48.248;-1.700;2023-04-25T03:48:31;8.40;69.00
46926;DHT22;32667;48.248;-1.700;2023-04-25T03:50:57;8.50;69.00
46926;DHT22;32667;48.248;-1.700;2023-04-25T03:53:23;8.50;69.00
46926;DHT22;32667;48.248;-1.700;2023-04-25T03:55:48;8.40;68.90
46926;DHT22;32667;48.248;-1.700;2023-04-25T03:58:17;8.40;68.90
46926;DHT22;32667;48.248;-1.700;2023-04-25T04:00:42;8.50;68.90
46926;DHT22;32667;48.248;-1.700;2023-04-25T04:03:08;8.50;68.90
46926;DHT22;32667;48.248;-1.700;2023-04-25T04:05:34;8.50;68.90
46926;DHT22;32667;48.248;-1.700;2023-04-25T04:07:59;8.50;68.90
46926;DHT22;32667;48.248;-1.700;2023-04-25T04:10:25;8.50;68.80
46926;DHT22;32667;48.248;-1.700;2023-04-25T04:12:51;8.50;68.80
46926;DHT22;32667;48.248;-1.700;2023-04-25T04:15:19;8.60;68.70
46926;DHT22;32667;48.248;-1.700;2023-04-25T04:17:45;8.50;68.70
46926;DHT22;32667;48.248;-1.700;2023-04-25T04:20:12;8.60;68.80
46926;DHT22;32667;48.248;-1.700;2023-04-25T04:22:38;8.50;68.80
46926;DHT22;32667;48.248;-1.700;2023-04-25T04:25:04;8.50;68.90
46926;DHT22;32667;48.248;-1.700;2023-04-25T04:27:31;8.50;68.90
46926;DHT22;32667;48.248;-1.700;2023-04-25T04:29:57;8.50;68.80
46926;DHT22;32667;48.248;-1.700;2023-04-25T04:32:23;8.60;68.90
46926;DHT22;32667;48.248;-1.700;2023-04-25T04:34:49;8.60;68.90
46926;DHT22;32667;48.248;-1.700;2023-04-25T04:37:15;8.60;68.80
46926;DHT22;32667;48.248;-1.700;2023-04-25T04:39:40;8.60;68.70
46926;DHT22;32667;48.248;-1.700;2023-04-25T04:42:06;8.60;68.70
46926;DHT22;32667;48.248;-1.700;2023-04-25T04:44:32;8.60;68.70
46926;DHT22;32667;48.248;-1.700;2023-04-25T04:46:58;8.70;69.30
46926;DHT22;32667;48.248;-1.700;2023-04-25T04:49:24;8.70;68.60
46926;DHT22;32667;48.248;-1.700;2023-04-25T04:51:50;8.70;68.50
46926;DHT22;32667;48.248;-1.700;2023-04-25T04:54:16;8.70;68.50
46926;DHT22;32667;48.248;-1.700;2023-04-25T04:56:42;8.70;68.50
46926;DHT22;32667;48.248;-1.700;2023-04-25T04:59:08;8.70;68.50
46926;DHT22;32667;48.248;-1.700;2023-04-25T05:01:34;8.70;68.50
46926;DHT22;32667;48.248;-1.700;2023-04-25T05:04:03;8.70;68.60
46926;DHT22;32667;48.248;-1.700;2023-04-25T05:06:29;8.70;68.60
46926;DHT22;32667;48.248;-1.700;2023-04-25T05:08:56;8.70;68.60
46926;DHT22;32667;48.248;-1.700;2023-04-25T05:11:22;8.70;68.60
46926;DHT22;32667;48.248;-1.700;2023-04-25T05:13:49;8.70;68.60
46926;DHT22;32667;48.248;-1.700;2023-04-25T05:16:15;8.60;68.50
46926;DHT22;32667;48.248;-1.700;2023-04-25T05:18:41;8.70;68.60
46926;DHT22;32667;48.248;-1.700;2023-04-25T05:21:07;8.60;68.50
46926;DHT22;32667;48.248;-1.700;2023-04-25T05:23:35;8.60;68.50
46926;DHT22;32667;48.248;-1.700;2023-04-25T05:26:03;8.70;68.60
46926;DHT22;32667;48.248;-1.700;2023-04-25T05:28:29;8.70;68.50
46926;DHT22;32667;48.248;-1.700;2023-04-25T05:30:56;8.70;68.50
46926;DHT22;32667;48.248;-1.700;2023-04-25T05:33:23;8.70;68.50
46926;DHT22;32667;48.248;-1.700;2023-04-25T05:35:50;8.70;68.60
46926;DHT22;32667;48.248;-1.700;2023-04-25T05:38:15;8.60;68.50
46926;DHT22;32667;48.248;-1.700;2023-04-25T05:40:41;8.70;68.50
46926;DHT22;32667;48.248;-1.700;2023-04-25T05:43:07;8.70;68.50
46926;DHT22;32667;48.248;-1.700;2023-04-25T05:45:33;8.70;68.40
46926;DHT22;32667;48.248;-1.700;2023-04-25T05:47:58;8.70;68.40
46926;DHT22;32667;48.248;-1.700;2023-04-25T05:50:24;8.80;68.40
46926;DHT22;32667;48.248;-1.700;2023-04-25T05:52:50;8.80;68.30
46926;DHT22;32667;48.248;-1.700;2023-04-25T05:55:16;8.80;68.20
46926;DHT22;32667;48.248;-1.700;2023-04-25T05:57:42;8.80;68.20
46926;DHT22;32667;48.248;-1.700;2023-04-25T06:00:13;8.90;68.30
46926;DHT22;32667;48.248;-1.700;2023-04-25T06:02:41;8.90;68.30
46926;DHT22;32667;48.248;-1.700;2023-04-25T06:05:08;8.90;68.10
46926;DHT22;32667;48.248;-1.700;2023-04-25T06:07:36;9.00;68.00
46926;DHT22;32667;48.248;-1.700;2023-04-25T06:10:04;9.00;68.50
46926;DHT22;32667;48.248;-1.700;2023-04-25T06:12:35;9.10;67.90
46926;DHT22;32667;48.248;-1.700;2023-04-25T06:15:00;9.10;67.90
46926;DHT22;32667;48.248;-1.700;2023-04-25T06:17:26;9.10;67.90
46926;DHT22;32667;48.248;-1.700;2023-04-25T06:19:52;9.10;67.90
46926;DHT22;32667;48.248;-1.700;2023-04-25T06:22:18;9.10;67.90
46926;DHT22;32667;48.248;-1.700;2023-04-25T06:24:44;9.20;67.90
46926;DHT22;32667;48.248;-1.700;2023-04-25T06:27:11;9.20;67.80
46926;DHT22;32667;48.248;-1.700;2023-04-25T06:29:37;9.20;67.80
46926;DHT22;32667;48.248;-1.700;2023-04-25T06:32:04;9.30;67.80
46926;DHT22;32667;48.248;-1.700;2023-04-25T06:34:29;9.30;67.80
46926;DHT22;32667;48.248;-1.700;2023-04-25T06:36:59;9.30;67.70
46926;DHT22;32667;48.248;-1.700;2023-04-25T06:39:24;9.30;67.70
46926;DHT22;32667;48.248;-1.700;2023-04-25T06:41:50;9.30;67.70
46926;DHT22;32667;48.248;-1.700;2023-04-25T06:44:16;9.40;67.70
46926;DHT22;32667;48.248;-1.700;2023-04-25T06:46:42;9.50;67.60
46926;DHT22;32667;48.248;-1.700;2023-04-25T06:49:08;9.50;67.50
46926;DHT22;32667;48.248;-1.700;2023-04-25T06:51:33;9.70;67.50
46926;DHT22;32667;48.248;-1.700;2023-04-25T06:53:59;9.80;67.30
46926;DHT22;32667;48.248;-1.700;2023-04-25T06:56:25;10.00;67.10
46926;DHT22;32667;48.248;-1.700;2023-04-25T06:58:51;10.10;66.80
46926;DHT22;32667;48.248;-1.700;2023-04-25T07:01:17;10.30;66.60
46926;DHT22;32667;48.248;-1.700;2023-04-25T07:03:42;10.40;66.30
46926;DHT22;32667;48.248;-1.700;2023-04-25T07:06:11;10.50;66.20
46926;DHT22;32667;48.248;-1.700;2023-04-25T07:08:36;10.60;66.10
46926;DHT22;32667;48.248;-1.700;2023-04-25T07:11:02;10.70;66.10
46926;DHT22;32667;48.248;-1.700;2023-04-25T07:13:28;10.70;66.00
46926;DHT22;32667;48.248;-1.700;2023-04-25T07:15:54;10.70;66.10
46926;DHT22;32667;48.248;-1.700;2023-04-25T07:18:20;10.80;66.10
46926;DHT22;32667;48.248;-1.700;2023-04-25T07:20:45;10.80;66.20
46926;DHT22;32667;48.248;-1.700;2023-04-25T07:23:11;10.80;66.10
46926;DHT22;32667;48.248;-1.700;2023-04-25T07:25:37;10.90;66.20
46926;DHT22;32667;48.248;-1.700;2023-04-25T07:28:06;11.00;66.20
46926;DHT22;32667;48.248;-1.700;2023-04-25T07:30:35;11.20;66.10
46926;DHT22;32667;48.248;-1.700;2023-04-25T07:33:05;11.30;65.80
46926;DHT22;32667;48.248;-1.700;2023-04-25T07:35:31;11.50;65.70
46926;DHT22;32667;48.248;-1.700;2023-04-25T07:37:57;11.70;65.50
46926;DHT22;32667;48.248;-1.700;2023-04-25T07:40:26;11.80;65.30
46926;DHT22;32667;48.248;-1.700;2023-04-25T07:42:52;12.00;65.10
46926;DHT22;32667;48.248;-1.700;2023-04-25T07:45:18;12.10;65.10
46926;DHT22;32667;48.248;-1.700;2023-04-25T07:47:47;12.20;64.90
46926;DHT22;32667;48.248;-1.700;2023-04-25T07:50:13;12.30;64.90
46926;DHT22;32667;48.248;-1.700;2023-04-25T07:52:38;12.30;64.90
46926;DHT22;32667;48.248;-1.700;2023-04-25T07:55:04;12.30;65.10
46926;DHT22;32667;48.248;-1.700;2023-04-25T07:57:30;12.30;65.20
46926;DHT22;32667;48.248;-1.700;2023-04-25T07:59:58;12.30;65.30
46926;DHT22;32667;48.248;-1.700;2023-04-25T08:02:25;12.30;65.40
46926;DHT22;32667;48.248;-1.700;2023-04-25T08:04:53;12.40;65.40
46926;DHT22;32667;48.248;-1.700;2023-04-25T08:07:19;12.40;65.30
46926;DHT22;32667;48.248;-1.700;2023-04-25T08:09:45;12.50;65.30
46926;DHT22;32667;48.248;-1.700;2023-04-25T08:12:10;12.60;65.30
46926;DHT22;32667;48.248;-1.700;2023-04-25T08:14:37;12.60;65.30
46926;DHT22;32667;48.248;-1.700;2023-04-25T08:17:05;12.60;65.40
46926;DHT22;32667;48.248;-1.700;2023-04-25T08:19:30;12.60;65.40
46926;DHT22;32667;48.248;-1.700;2023-04-25T08:21:57;12.60;65.40
46926;DHT22;32667;48.248;-1.700;2023-04-25T08:24:23;12.60;65.40
46926;DHT22;32667;48.248;-1.700;2023-04-25T08:26:49;12.60;65.50
46926;DHT22;32667;48.248;-1.700;2023-04-25T08:29:15;12.60;65.50
46926;DHT22;32667;48.248;-1.700;2023-04-25T08:31:40;12.60;65.60
46926;DHT22;32667;48.248;-1.700;2023-04-25T08:34:06;12.60;65.60
46926;DHT22;32667;48.248;-1.700;2023-04-25T08:36:32;12.60;65.60
46926;DHT22;32667;48.248;-1.700;2023-04-25T08:38:58;12.60;65.70
46926;DHT22;32667;48.248;-1.700;2023-04-25T08:41:24;12.60;65.60
46926;DHT22;32667;48.248;-1.700;2023-04-25T08:43:51;12.70;65.60
46926;DHT22;32667;48.248;-1.700;2023-04-25T08:46:20;12.70;65.50
46926;DHT22;32667;48.248;-1.700;2023-04-25T08:48:46;12.70;65.40
46926;DHT22;32667;48.248;-1.700;2023-04-25T08:51:25;12.80;65.50
46926;DHT22;32667;48.248;-1.700;2023-04-25T08:53:53;12.70;65.40
46926;DHT22;32667;48.248;-1.700;2023-04-25T08:56:19;12.70;65.50
46926;DHT22;32667;48.248;-1.700;2023-04-25T08:58:58;12.70;65.60
46926;DHT22;32667;48.248;-1.700;2023-04-25T09:01:24;12.60;65.60
46926;DHT22;32667;48.248;-1.700;2023-04-25T09:03:50;12.70;65.80
46926;DHT22;32667;48.248;-1.700;2023-04-25T09:06:17;12.60;65.70
46926;DHT22;32667;48.248;-1.700;2023-04-25T09:08:43;12.70;65.80
46926;DHT22;32667;48.248;-1.700;2023-04-25T09:11:09;12.70;65.80
46926;DHT22;32667;48.248;-1.700;2023-04-25T09:13:35;12.70;65.80
46926;DHT22;32667;48.248;-1.700;2023-04-25T09:16:01;12.70;65.80
46926;DHT22;32667;48.248;-1.700;2023-04-25T09:18:31;12.80;65.80
46926;DHT22;32667;48.248;-1.700;2023-04-25T09:21:10;12.80;65.60
46926;DHT22;32667;48.248;-1.700;2023-04-25T09:23:54;12.90;65.60
46926;DHT22;32667;48.248;-1.700;2023-04-25T09:26:22;12.90;65.50
46926;DHT22;32667;48.248;-1.700;2023-04-25T09:28:48;13.00;65.60
46926;DHT22;32667;48.248;-1.700;2023-04-25T09:31:22;13.10;65.40
46926;DHT22;32667;48.248;-1.700;2023-04-25T09:33:49;13.20;65.20
46926;DHT22;32667;48.248;-1.700;2023-04-25T09:36:18;13.20;65.10
46926;DHT22;32667;48.248;-1.700;2023-04-25T09:38:45;13.20;65.20
46926;DHT22;32667;48.248;-1.700;2023-04-25T09:41:12;13.20;65.30
46926;DHT22;32667;48.248;-1.700;2023-04-25T09:43:39;13.30;65.30
46926;DHT22;32667;48.248;-1.700;2023-04-25T09:46:11;13.20;65.30
46926;DHT22;32667;48.248;-1.700;2023-04-25T09:48:37;13.30;65.40
46926;DHT22;32667;48.248;-1.700;2023-04-25T09:51:10;13.30;65.30
46926;DHT22;32667;48.248;-1.700;2023-04-25T09:53:38;13.40;65.30
46926;DHT22;32667;48.248;-1.700;2023-04-25T09:56:06;13.40;65.30
46926;DHT22;32667;48.248;-1.700;2023-04-25T09:58:32;13.30;65.40
46926;DHT22;32667;48.248;-1.700;2023-04-25T10:01:07;13.30;65.40
46926;DHT22;32667;48.248;-1.700;2023-04-25T10:03:39;13.40;65.40
46926;DHT22;32667;48.248;-1.700;2023-04-25T10:06:17;13.50;65.30
46926;DHT22;32667;48.248;-1.700;2023-04-25T10:08:46;13.40;65.30
46926;DHT22;32667;48.248;-1.700;2023-04-25T10:11:15;13.30;65.40
46926;DHT22;32667;48.248;-1.700;2023-04-25T10:13:41;13.30;65.80
46926;DHT22;32667;48.248;-1.700;2023-04-25T10:16:08;13.30;65.80
46926;DHT22;32667;48.248;-1.700;2023-04-25T10:18:34;13.50;65.70
46926;DHT22;32667;48.248;-1.700;2023-04-25T10:21:02;13.50;65.40
46926;DHT22;32667;48.248;-1.700;2023-04-25T10:23:30;13.70;65.30
46926;DHT22;32667;48.248;-1.700;2023-04-25T10:25:57;13.80;65.10
46926;DHT22;32667;48.248;-1.700;2023-04-25T10:28:23;13.70;65.20
46926;DHT22;32667;48.248;-1.700;2023-04-25T10:31:02;13.70;65.30
46926;DHT22;32667;48.248;-1.700;2023-04-25T10:33:35;13.70;65.30
46926;DHT22;32667;48.248;-1.700;2023-04-25T10:36:11;13.80;65.30
46926;DHT22;32667;48.248;-1.700;2023-04-25T10:38:38;13.90;65.20
46926;DHT22;32667;48.248;-1.700;2023-04-25T10:41:05;14.10;65.00
46926;DHT22;32667;48.248;-1.700;2023-04-25T10:43:44;14.20;64.90
46926;DHT22;32667;48.248;-1.700;2023-04-25T10:46:17;14.30;64.80
46926;DHT22;32667;48.248;-1.700;2023-04-25T10:48:51;14.40;64.70
46926;DHT22;32667;48.248;-1.700;2023-04-25T10:51:18;14.50;64.50
46926;DHT22;32667;48.248;-1.700;2023-04-25T10:53:56;14.60;64.40
46926;DHT22;32667;48.248;-1.700;2023-04-25T10:56:25;14.60;64.40
46926;DHT22;32667;48.248;-1.700;2023-04-25T10:58:52;14.50;64.50
46926;DHT22;32667;48.248;-1.700;2023-04-25T11:01:44;14.40;64.70
46926;DHT22;32667;48.248;-1.700;2023-04-25T11:07:10;14.40;65.20
46926;DHT22;32667;48.248;-1.700;2023-04-25T11:09:40;14.40;65.10
46926;DHT22;32667;48.248;-1.700;2023-04-25T11:12:08;14.60;64.90
46926;DHT22;32667;48.248;-1.700;2023-04-25T11:14:36;14.70;64.70
46926;DHT22;32667;48.248;-1.700;2023-04-25T11:17:02;14.70;64.60
46926;DHT22;32667;48.248;-1.700;2023-04-25T11:19:29;14.70;64.60
46926;DHT22;32667;48.248;-1.700;2023-04-25T11:21:55;14.70;64.70
46926;DHT22;32667;48.248;-1.700;2023-04-25T11:24:29;14.70;64.90
46926;DHT22;32667;48.248;-1.700;2023-04-25T11:26:55;14.70;64.90
46926;DHT22;32667;48.248;-1.700;2023-04-25T11:29:27;14.70;64.90
46926;DHT22;32667;48.248;-1.700;2023-04-25T11:31:53;14.80;64.90
46926;DHT22;32667;48.248;-1.700;2023-04-25T11:34:21;14.80;64.80
46926;DHT22;32667;48.248;-1.700;2023-04-25T11:36:48;14.90;64.70
46926;DHT22;32667;48.248;-1.700;2023-04-25T11:39:14;14.80;64.70
46926;DHT22;32667;48.248;-1.700;2023-04-25T11:41:41;14.80;64.70
46926;DHT22;32667;48.248;-1.700;2023-04-25T11:44:07;14.80;64.80
46926;DHT22;32667;48.248;-1.700;2023-04-25T11:46:46;14.80;64.80
46926;DHT22;32667;48.248;-1.700;2023-04-25T11:49:12;14.70;65.00
46926;DHT22;32667;48.248;-1.700;2023-04-25T11:51:45;14.60;65.10
46926;DHT22;32667;48.248;-1.700;2023-04-25T11:54:12;14.60;65.20
46926;DHT22;32667;48.248;-1.700;2023-04-25T11:56:44;14.50;65.20
46926;DHT22;32667;48.248;-1.700;2023-04-25T11:59:11;14.50;65.40
46926;DHT22;32667;48.248;-1.700;2023-04-25T12:01:39;14.60;65.40
46926;DHT22;32667;48.248;-1.700;2023-04-25T12:04:14;14.70;65.20
46926;DHT22;32667;48.248;-1.700;2023-04-25T12:06:41;14.80;65.00
46926;DHT22;32667;48.248;-1.700;2023-04-25T12:09:09;14.80;64.90
46926;DHT22;32667;48.248;-1.700;2023-04-25T12:12:01;14.80;64.80
46926;DHT22;32667;48.248;-1.700;2023-04-25T12:14:36;14.70;64.90
46926;DHT22;32667;48.248;-1.700;2023-04-25T12:17:03;14.70;65.20
46926;DHT22;32667;48.248;-1.700;2023-04-25T12:19:33;14.60;65.20
46926;DHT22;32667;48.248;-1.700;2023-04-25T12:22:00;14.60;65.40
46926;DHT22;32667;48.248;-1.700;2023-04-25T12:24:27;14.70;65.30
46926;DHT22;32667;48.248;-1.700;2023-04-25T12:27:03;14.90;65.00
46926;DHT22;32667;48.248;-1.700;2023-04-25T12:29:31;15.10;64.70
46926;DHT22;32667;48.248;-1.700;2023-04-25T12:31:57;15.20;64.60
46926;DHT22;32667;48.248;-1.700;2023-04-25T12:34:24;15.20;64.40
46926;DHT22;32667;48.248;-1.700;2023-04-25T12:36:51;15.20;64.40
46926;DHT22;32667;48.248;-1.700;2023-04-25T12:39:22;15.20;64.60
46926;DHT22;32667;48.248;-1.700;2023-04-25T12:41:52;15.10;64.70
46926;DHT22;32667;48.248;-1.700;2023-04-25T12:44:20;15.00;65.00
46926;DHT22;32667;48.248;-1.700;2023-04-25T12:46:47;15.00;65.00
46926;DHT22;32667;48.248;-1.700;2023-04-25T12:49:14;15.10;65.10
46926;DHT22;32667;48.248;-1.700;2023-04-25T12:51:40;15.10;64.90
46926;DHT22;32667;48.248;-1.700;2023-04-25T12:54:07;15.20;64.80
46926;DHT22;32667;48.248;-1.700;2023-04-25T12:56:34;15.20;64.80
46926;DHT22;32667;48.248;-1.700;2023-04-25T12:59:00;15.10;64.80
46926;DHT22;32667;48.248;-1.700;2023-04-25T13:01:26;15.10;64.90
46926;DHT22;32667;48.248;-1.700;2023-04-25T13:03:52;15.10;64.90
46926;DHT22;32667;48.248;-1.700;2023-04-25T13:06:19;15.20;64.80
46926;DHT22;32667;48.248;-1.700;2023-04-25T13:08:45;15.30;64.80
46926;DHT22;32667;48.248;-1.700;2023-04-25T13:11:11;15.20;64.80
46926;DHT22;32667;48.248;-1.700;2023-04-25T13:13:37;15.30;64.90
46926;DHT22;32667;48.248;-1.700;2023-04-25T13:16:06;15.30;64.70
46926;DHT22;32667;48.248;-1.700;2023-04-25T13:18:33;15.50;64.70
46926;DHT22;32667;48.248;-1.700;2023-04-25T13:20:59;15.70;64.40
46926;DHT22;32667;48.248;-1.700;2023-04-25T13:23:27;15.80;64.20
46926;DHT22;32667;48.248;-1.700;2023-04-25T13:25:54;15.90;64.00
46926;DHT22;32667;48.248;-1.700;2023-04-25T13:28:23;16.00;64.00
46926;DHT22;32667;48.248;-1.700;2023-04-25T13:30:49;16.00;63.90
46926;DHT22;32667;48.248;-1.700;2023-04-25T13:33:15;16.00;64.00
46926;DHT22;32667;48.248;-1.700;2023-04-25T13:35:42;15.90;64.10
46926;DHT22;32667;48.248;-1.700;2023-04-25T13:38:08;15.90;64.30
46926;DHT22;32667;48.248;-1.700;2023-04-25T13:40:34;15.90;64.40
46926;DHT22;32667;48.248;-1.700;2023-04-25T13:43:03;15.90;64.50
46926;DHT22;32667;48.248;-1.700;2023-04-25T13:45:29;16.00;64.40
46926;DHT22;32667;48.248;-1.700;2023-04-25T13:47:55;16.10;64.20
46926;DHT22;32667;48.248;-1.700;2023-04-25T13:50:20;16.10;64.10
46926;DHT22;32667;48.248;-1.700;2023-04-25T13:52:46;16.10;64.10
46926;DHT22;32667;48.248;-1.700;2023-04-25T13:55:12;16.00;64.20
46926;DHT22;32667;48.248;-1.700;2023-04-25T13:57:38;16.00;64.30
46926;DHT22;32667;48.248;-1.700;2023-04-25T14:00:04;16.00;64.40
46926;DHT22;32667;48.248;-1.700;2023-04-25T14:02:37;16.10;64.50
46926;DHT22;32667;48.248;-1.700;2023-04-25T14:05:06;16.10;64.30
46926;DHT22;32667;48.248;-1.700;2023-04-25T14:07:36;16.20;64.20
46926;DHT22;32667;48.248;-1.700;2023-04-25T14:10:03;16.10;64.20
46926;DHT22;32667;48.248;-1.700;2023-04-25T14:12:30;16.20;64.40
46926;DHT22;32667;48.248;-1.700;2023-04-25T14:14:56;16.30;64.30
46926;DHT22;32667;48.248;-1.700;2023-04-25T14:17:24;16.30;64.10
46926;DHT22;32667;48.248;-1.700;2023-04-25T14:19:50;16.30;64.10
46926;DHT22;32667;48.248;-1.700;2023-04-25T14:22:16;16.30;64.10
46926;DHT22;32667;48.248;-1.700;2023-04-25T14:24:41;16.30;64.20
46926;DHT22;32667;48.248;-1.700;2023-04-25T14:27:07;16.20;64.30
46926;DHT22;32667;48.248;-1.700;2023-04-25T14:29:34;16.00;64.60
46926;DHT22;32667;48.248;-1.700;2023-04-25T14:32:00;15.90;64.80
46926;DHT22;32667;48.248;-1.700;2023-04-25T14:34:27;15.90;65.00
46926;DHT22;32667;48.248;-1.700;2023-04-25T14:36:53;15.90;65.10
46926;DHT22;32667;48.248;-1.700;2023-04-25T14:39:19;15.90;65.00
46926;DHT22;32667;48.248;-1.700;2023-04-25T14:41:45;16.00;64.90
46926;DHT22;32667;48.248;-1.700;2023-04-25T14:44:13;16.00;64.70
46926;DHT22;32667;48.248;-1.700;2023-04-25T14:46:39;16.10;64.60
46926;DHT22;32667;48.248;-1.700;2023-04-25T14:49:05;16.20;64.50
46926;DHT22;32667;48.248;-1.700;2023-04-25T14:51:30;16.20;64.30
46926;DHT22;32667;48.248;-1.700;2023-04-25T14:53:56;16.20;64.40
46926;DHT22;32667;48.248;-1.700;2023-04-25T14:56:22;16.20;64.20
46926;DHT22;32667;48.248;-1.700;2023-04-25T14:58:48;16.30;64.30
46926;DHT22;32667;48.248;-1.700;2023-04-25T15:01:14;16.30;64.10
46926;DHT22;32667;48.248;-1.700;2023-04-25T15:03:40;16.40;64.10
46926;DHT22;32667;48.248;-1.700;2023-04-25T15:06:06;16.40;64.00
46926;DHT22;32667;48.248;-1.700;2023-04-25T15:08:33;16.40;64.10
46926;DHT22;32667;48.248;-1.700;2023-04-25T15:10:59;16.30;64.20
46926;DHT22;32667;48.248;-1.700;2023-04-25T15:13:26;16.30;64.90
46926;DHT22;32667;48.248;-1.700;2023-04-25T15:15:51;16.30;64.30
46926;DHT22;32667;48.248;-1.700;2023-04-25T15:18:22;16.30;64.40
46926;DHT22;32667;48.248;-1.700;2023-04-25T15:20:52;16.20;64.50
46926;DHT22;32667;48.248;-1.700;2023-04-25T15:23:19;16.30;64.50
46926;DHT22;32667;48.248;-1.700;2023-04-25T15:25:46;16.30;64.40
46926;DHT22;32667;48.248;-1.700;2023-04-25T15:28:13;16.30;64.40